createdAt,value
2023-01-06T00:01:11.004Z,23.17
2023-01-06T00:08:42.755Z,23.19
2023-01-06T00:16:17.427Z,23.19
2023-01-06T00:23:49.221Z,23.18
2023-01-06T01:03:52.541Z,23.15
2023-01-06T01:11:43.928Z,23.17
2023-01-06T01:19:15.752Z,23.14
2023-01-06T01:26:47.566Z,23.13
2023-01-06T01:34:19.515Z,23.14
2023-01-06T01:41:51.446Z,23.14
2023-01-06T01:49:25.901Z,23.14
2023-01-06T01:57:05.383Z,23.14
2023-01-06T02:04:39.272Z,23.13
2023-01-06T02:12:12.581Z,23.12
2023-01-06T02:20:06.754Z,23.12
2023-01-06T02:28:07.511Z,23.13
2023-01-06T02:36:08.068Z,23.10
2023-01-06T02:43:57.668Z,23.09
2023-01-06T02:51:57.757Z,23.11
2023-01-06T02:59:37.500Z,23.12
2023-01-06T03:07:09.944Z,23.09
2023-01-06T03:14:47.548Z,23.11
2023-01-06T03:22:20.033Z,23.11
2023-01-06T03:29:51.877Z,23.10
2023-01-06T03:37:55.417Z,23.09
2023-01-06T03:45:50.949Z,23.10
2023-01-06T03:53:45.506Z,23.08
2023-01-06T04:01:17.972Z,23.08
2023-01-06T04:08:51.357Z,23.07
2023-01-06T04:16:23.332Z,23.07
2023-01-06T04:23:55.399Z,23.06
2023-01-06T04:31:27.892Z,23.07
2023-01-06T04:39:00.261Z,23.08
2023-01-06T04:46:31.974Z,23.09
2023-01-06T04:54:03.789Z,23.08
2023-01-06T05:01:36.654Z,23.08
2023-01-06T05:09:08.713Z,23.10
2023-01-06T05:16:40.521Z,23.10
2023-01-06T05:24:12.342Z,23.09
2023-01-06T05:31:44.140Z,23.09
2023-01-06T05:39:15.947Z,23.08
2023-01-06T05:46:47.698Z,23.09
2023-01-06T05:54:19.692Z,23.09
2023-01-06T06:01:51.632Z,23.07
2023-01-06T06:09:23.472Z,23.08
2023-01-06T06:16:56.146Z,23.06
2023-01-06T06:24:27.868Z,23.05
2023-01-06T06:31:59.607Z,23.07
2023-01-06T06:39:31.410Z,23.06
2023-01-06T06:47:03.206Z,23.05
2023-01-06T06:54:34.979Z,23.05
2023-01-06T07:02:07.463Z,23.04
2023-01-06T07:09:39.326Z,23.03
2023-01-06T07:17:11.153Z,23.03
2023-01-06T07:24:42.899Z,23.04
2023-01-06T07:32:14.640Z,23.03
2023-01-06T07:39:46.392Z,23.03
2023-01-06T07:47:18.189Z,23.05
2023-01-06T07:54:49.903Z,23.05
2023-01-06T08:02:22.083Z,23.07
2023-01-06T08:09:53.961Z,23.07
2023-01-06T08:17:25.788Z,23.07
2023-01-06T08:24:57.551Z,23.07
2023-01-06T08:32:29.298Z,23.07
2023-01-06T08:40:01.113Z,23.07
2023-01-06T08:47:32.920Z,23.05
2023-01-06T08:55:05.083Z,23.05
2023-01-06T09:02:36.910Z,23.05
2023-01-06T09:10:08.907Z,23.04
2023-01-06T09:17:40.935Z,23.04
2023-01-06T09:25:12.793Z,23.03
2023-01-06T09:32:48.167Z,23.04
2023-01-06T09:40:27.242Z,23.03
2023-01-06T09:47:59.417Z,23.02
2023-01-06T09:55:38.971Z,23.04
2023-01-06T10:03:15.127Z,23.05
2023-01-06T10:11:26.342Z,23.04
2023-01-06T10:19:24.290Z,23.10
2023-01-06T10:27:10.360Z,23.09
2023-01-06T10:34:42.132Z,23.08
2023-01-06T10:43:00.145Z,23.07
2023-01-06T10:50:33.291Z,23.07
2023-01-06T10:58:38.456Z,23.10
2023-01-06T11:06:29.745Z,23.09
2023-01-06T11:14:04.740Z,23.11
2023-01-06T11:21:48.915Z,23.11
2023-01-06T11:29:34.849Z,23.13
2023-01-06T11:37:06.550Z,23.12
2023-01-06T11:44:40.173Z,23.11
2023-01-06T11:52:31.108Z,23.13
2023-01-06T12:00:20.344Z,23.11
2023-01-06T12:07:52.537Z,23.13
2023-01-06T12:15:24.272Z,23.13
2023-01-06T12:23:02.077Z,23.11
2023-01-06T12:30:51.148Z,23.11
2023-01-06T12:38:46.607Z,23.11
2023-01-06T12:46:22.555Z,23.11
2023-01-06T12:54:06.314Z,23.10
2023-01-06T13:02:09.608Z,23.13
2023-01-06T13:09:59.466Z,23.12
2023-01-06T13:17:46.679Z,23.09
2023-01-06T13:26:11.583Z,23.13
2023-01-06T13:34:04.575Z,23.13
2023-01-06T13:41:37.475Z,23.15
2023-01-06T13:49:10.414Z,23.16
2023-01-06T13:56:42.152Z,23.17
2023-01-06T14:04:28.898Z,23.16
2023-01-06T14:12:10.648Z,23.16
2023-01-06T14:19:51.865Z,23.13
2023-01-06T14:27:45.324Z,23.14
2023-01-06T14:35:20.116Z,23.15
2023-01-06T14:42:51.849Z,23.16
2023-01-06T14:50:29.826Z,23.17
2023-01-06T14:58:06.449Z,23.17
2023-01-06T15:05:39.138Z,23.13
2023-01-06T15:13:27.046Z,23.14
2023-01-06T15:20:58.816Z,23.13
2023-01-06T15:28:34.683Z,23.11
2023-01-06T15:36:06.752Z,23.12
2023-01-06T15:43:42.360Z,23.11
2023-01-06T15:51:20.175Z,23.13
2023-01-06T15:58:53.269Z,23.14
2023-01-06T16:06:29.847Z,23.10
2023-01-06T16:14:01.602Z,23.14
2023-01-06T16:21:35.245Z,23.17
2023-01-06T16:29:26.238Z,23.18
2023-01-06T16:36:59.219Z,23.19
2023-01-06T16:44:31.939Z,23.14
2023-01-06T16:52:03.643Z,23.11
2023-01-06T16:59:36.045Z,23.12
2023-01-06T17:07:13.904Z,23.12
2023-01-06T17:14:45.707Z,23.11
2023-01-06T17:22:29.267Z,23.12
2023-01-06T17:30:01.603Z,23.12
2023-01-06T17:37:33.531Z,23.13
2023-01-06T17:45:31.372Z,23.11
2023-01-06T17:53:35.767Z,23.12
2023-01-06T18:01:09.385Z,23.10
2023-01-06T18:08:41.206Z,23.12
2023-01-06T18:16:33.070Z,23.14
2023-01-06T18:24:38.474Z,23.16
2023-01-06T18:32:31.087Z,23.15
2023-01-06T18:40:06.732Z,23.24
2023-01-06T18:47:41.423Z,23.34
2023-01-06T18:55:41.510Z,23.32
2023-01-06T19:03:31.577Z,23.27
2023-01-06T19:11:22.531Z,23.23
2023-01-06T19:18:57.879Z,23.20
2023-01-06T19:26:34.305Z,23.17
2023-01-06T19:34:06.385Z,23.17
2023-01-06T19:41:38.117Z,23.15
2023-01-06T19:49:18.792Z,23.14
2023-01-06T19:56:51.024Z,23.14
2023-01-06T20:04:25.077Z,23.12
2023-01-06T20:11:56.938Z,23.10
2023-01-06T20:19:28.875Z,23.10
2023-01-06T20:27:00.678Z,23.09
2023-01-06T20:34:32.509Z,23.09
2023-01-06T20:42:05.545Z,23.09
2023-01-06T20:49:38.843Z,23.07
2023-01-06T20:57:10.637Z,23.06
2023-01-06T21:04:42.444Z,23.06
2023-01-06T21:12:14.304Z,23.06
2023-01-06T21:19:46.024Z,23.06
2023-01-06T21:27:17.776Z,23.07
2023-01-06T21:34:49.953Z,23.05
2023-01-06T21:42:40.090Z,23.05
2023-01-06T21:50:12.769Z,23.04
2023-01-06T21:57:44.621Z,23.05
2023-01-06T22:05:16.473Z,23.04
2023-01-06T22:12:48.804Z,23.05
2023-01-06T22:20:20.622Z,23.03
2023-01-06T22:27:52.489Z,23.03
2023-01-06T22:35:24.327Z,23.04
2023-01-06T22:42:57.147Z,23.03
2023-01-06T22:50:28.911Z,23.05
2023-01-06T22:58:00.806Z,23.04
2023-01-06T23:05:32.592Z,23.06
2023-01-06T23:13:04.494Z,23.04
2023-01-06T23:20:36.246Z,23.04
2023-01-06T23:28:07.983Z,23.03
2023-01-06T23:35:39.726Z,23.03
2023-01-06T23:43:11.635Z,23.01
2023-01-06T23:50:50.556Z,23.02
2023-01-06T23:58:22.419Z,23.03
